createdAt,value
2022-09-02T00:01:31.544Z,14.00
2022-09-02T00:04:02.274Z,14.00
2022-09-02T00:06:31.236Z,14.00
2022-09-02T00:08:58.711Z,14.00
2022-09-02T00:11:28.755Z,14.00
2022-09-02T00:13:57.093Z,13.90
2022-09-02T00:16:25.179Z,13.90
2022-09-02T00:18:53.525Z,13.80
2022-09-02T00:21:21.006Z,13.80
2022-09-02T00:23:48.493Z,13.70
2022-09-02T00:26:15.324Z,13.70
2022-09-02T00:28:51.207Z,13.70
2022-09-02T00:31:22.836Z,13.70
2022-09-02T00:33:51.341Z,13.60
2022-09-02T00:36:17.974Z,13.60
2022-09-02T00:38:44.594Z,13.60
2022-09-02T00:41:12.361Z,13.60
2022-09-02T00:44:04.270Z,13.60
2022-09-02T00:46:33.125Z,13.50
2022-09-02T00:49:05.769Z,13.50
2022-09-02T00:51:54.658Z,13.40
2022-09-02T00:54:24.029Z,13.50
2022-09-02T00:56:53.946Z,13.40
2022-09-02T00:59:58.598Z,13.40
2022-09-02T01:02:25.956Z,13.40
2022-09-02T01:04:56.581Z,13.40
2022-09-02T01:07:26.076Z,13.40
2022-09-02T01:09:55.622Z,13.40
2022-09-02T01:12:24.799Z,13.40
2022-09-02T01:14:51.473Z,13.40
2022-09-02T01:17:19.348Z,13.40
2022-09-02T01:19:51.600Z,13.30
2022-09-02T01:22:25.861Z,13.20
2022-09-02T01:24:54.368Z,13.10
2022-09-02T01:27:23.261Z,13.10
2022-09-02T01:29:58.447Z,13.10
2022-09-02T01:32:26.346Z,13.00
2022-09-02T01:34:53.083Z,13.00
2022-09-02T01:37:20.378Z,13.00
2022-09-02T01:39:48.281Z,13.00
2022-09-02T01:42:15.348Z,12.90
2022-09-02T01:44:44.113Z,12.80
2022-09-02T01:47:15.982Z,12.80
2022-09-02T01:49:42.926Z,12.80
2022-09-02T01:52:10.018Z,12.80
2022-09-02T01:54:36.773Z,12.70
2022-09-02T01:57:03.521Z,12.70
2022-09-02T01:59:30.874Z,12.60
2022-09-02T02:01:58.039Z,12.60
2022-09-02T02:04:25.363Z,12.50
2022-09-02T02:06:53.425Z,12.40
2022-09-02T02:09:21.494Z,12.40
2022-09-02T02:11:48.869Z,12.30
2022-09-02T02:14:16.144Z,12.20
2022-09-02T02:16:42.872Z,12.20
2022-09-02T02:19:09.535Z,12.10
2022-09-02T02:21:36.170Z,12.10
2022-09-02T02:24:03.298Z,12.00
2022-09-02T02:26:30.822Z,11.90
2022-09-02T02:28:57.562Z,11.90
2022-09-02T02:31:25.079Z,11.90
2022-09-02T02:33:52.049Z,11.90
2022-09-02T02:36:19.191Z,11.80
2022-09-02T02:38:46.732Z,11.80
2022-09-02T02:41:14.831Z,11.80
2022-09-02T02:43:42.358Z,11.70
2022-09-02T02:46:09.331Z,11.70
2022-09-02T02:48:36.596Z,11.70
2022-09-02T02:51:04.052Z,11.70
2022-09-02T02:53:31.265Z,11.70
2022-09-02T02:55:59.282Z,11.60
2022-09-02T02:58:26.449Z,11.60
2022-09-02T03:00:53.101Z,11.60
2022-09-02T03:03:20.240Z,11.60
2022-09-02T03:05:48.207Z,11.60
2022-09-02T03:08:15.843Z,11.60
2022-09-02T03:10:44.099Z,11.60
2022-09-02T03:13:11.509Z,11.60
2022-09-02T03:15:39.386Z,11.60
2022-09-02T03:18:06.621Z,11.50
2022-09-02T03:20:33.399Z,11.50
2022-09-02T03:23:00.800Z,11.50
2022-09-02T03:25:35.793Z,11.50
2022-09-02T03:28:03.613Z,11.50
2022-09-02T03:30:32.139Z,11.50
2022-09-02T03:33:04.130Z,11.50
2022-09-02T03:35:31.605Z,11.50
2022-09-02T03:37:59.805Z,11.40
2022-09-02T03:40:28.257Z,11.40
2022-09-02T03:43:00.242Z,11.40
2022-09-02T03:45:27.331Z,11.40
2022-09-02T03:47:54.281Z,11.30
2022-09-02T03:50:25.049Z,11.30
2022-09-02T03:52:51.989Z,11.30
2022-09-02T03:55:18.887Z,11.30
2022-09-02T03:57:46.006Z,11.30
2022-09-02T04:00:15.825Z,11.30
2022-09-02T04:02:42.874Z,11.30
2022-09-02T04:05:15.912Z,11.30
2022-09-02T04:07:44.147Z,11.20
2022-09-02T04:10:14.975Z,11.20
2022-09-02T04:12:41.753Z,11.20
2022-09-02T04:15:10.675Z,11.10
2022-09-02T04:17:39.161Z,11.00
2022-09-02T04:20:08.609Z,11.00
2022-09-02T04:22:35.369Z,11.00
2022-09-02T04:25:02.669Z,11.00
2022-09-02T04:27:29.550Z,11.00
2022-09-02T04:29:56.310Z,11.00
2022-09-02T04:32:23.651Z,11.10
2022-09-02T04:34:50.297Z,11.00
2022-09-02T04:37:17.021Z,11.10
2022-09-02T04:39:43.689Z,11.00
2022-09-02T04:42:10.466Z,11.10
2022-09-02T04:44:37.170Z,11.10
2022-09-02T04:47:03.875Z,11.10
2022-09-02T04:49:32.695Z,11.20
2022-09-02T04:52:00.102Z,11.10
2022-09-02T04:54:27.177Z,11.20
2022-09-02T04:56:53.954Z,11.20
2022-09-02T04:59:21.226Z,11.20
2022-09-02T05:01:50.138Z,11.20
2022-09-02T05:04:17.158Z,11.30
2022-09-02T05:06:44.696Z,11.30
2022-09-02T05:09:11.505Z,11.40
2022-09-02T05:11:38.654Z,11.40
2022-09-02T05:14:06.854Z,11.40
2022-09-02T05:16:37.858Z,11.50
2022-09-02T05:19:06.729Z,11.50
2022-09-02T05:21:33.475Z,11.60
2022-09-02T05:24:01.380Z,11.60
2022-09-02T05:26:28.118Z,11.70
2022-09-02T05:28:54.823Z,11.70
2022-09-02T05:31:22.231Z,11.80
2022-09-02T05:33:49.098Z,11.90
2022-09-02T05:36:19.127Z,11.90
2022-09-02T05:38:46.413Z,11.90
2022-09-02T05:41:17.555Z,11.90
2022-09-02T05:43:45.629Z,12.00
2022-09-02T05:46:17.484Z,12.10
2022-09-02T05:49:04.251Z,12.10
2022-09-02T05:51:32.120Z,12.30
2022-09-02T05:54:00.519Z,12.30
2022-09-02T05:56:27.480Z,12.40
2022-09-02T05:58:56.180Z,12.50
2022-09-02T06:01:23.100Z,12.60
2022-09-02T06:03:50.442Z,12.60
2022-09-02T06:06:18.510Z,12.70
2022-09-02T06:08:45.630Z,12.80
2022-09-02T06:11:13.018Z,12.90
2022-09-02T06:13:41.779Z,13.10
2022-09-02T06:16:10.534Z,13.20
2022-09-02T06:18:37.625Z,13.30
2022-09-02T06:21:05.911Z,13.40
2022-09-02T06:23:35.886Z,13.50
2022-09-02T06:26:02.570Z,13.50
2022-09-02T06:28:29.218Z,13.60
2022-09-02T06:30:55.925Z,13.70
2022-09-02T06:33:22.689Z,13.80
2022-09-02T06:35:49.721Z,13.80
2022-09-02T06:38:16.758Z,13.90
2022-09-02T06:40:51.824Z,14.00
2022-09-02T06:43:18.646Z,14.10
2022-09-02T06:45:45.516Z,14.20
2022-09-02T06:48:13.532Z,14.30
2022-09-02T06:50:46.485Z,14.30
2022-09-02T06:53:13.900Z,14.40
2022-09-02T06:55:43.511Z,14.50
2022-09-02T06:58:10.742Z,14.60
2022-09-02T07:00:38.429Z,14.70
2022-09-02T07:03:24.381Z,14.80
2022-09-02T07:06:11.094Z,14.80
2022-09-02T07:08:41.373Z,15.00
2022-09-02T07:11:20.133Z,15.00
2022-09-02T07:13:46.924Z,15.10
2022-09-02T07:16:26.681Z,15.20
2022-09-02T07:18:54.123Z,15.30
2022-09-02T07:21:20.796Z,15.40
2022-09-02T07:23:47.595Z,15.50
2022-09-02T07:26:16.099Z,15.60
2022-09-02T07:28:43.465Z,15.60
2022-09-02T07:31:11.540Z,15.70
2022-09-02T07:33:38.613Z,15.80
2022-09-02T07:36:11.092Z,15.90
2022-09-02T07:38:40.955Z,16.00
2022-09-02T07:41:09.903Z,16.10
2022-09-02T07:43:38.106Z,16.20
2022-09-02T07:46:05.742Z,16.30
2022-09-02T07:48:33.554Z,16.50
2022-09-02T07:51:01.179Z,16.50
2022-09-02T07:53:28.466Z,16.60
2022-09-02T07:55:55.120Z,16.60
2022-09-02T07:58:22.409Z,16.80
2022-09-02T08:00:50.082Z,16.90
2022-09-02T08:03:17.502Z,17.10
2022-09-02T08:05:46.961Z,17.20
2022-09-02T08:08:16.074Z,17.30
2022-09-02T08:10:43.525Z,17.40
2022-09-02T08:13:10.969Z,17.50
2022-09-02T08:15:37.951Z,17.60
2022-09-02T08:18:05.407Z,17.80
2022-09-02T08:20:32.080Z,17.80
2022-09-02T08:23:10.627Z,17.80
2022-09-02T08:25:40.705Z,17.80
2022-09-02T08:28:07.367Z,17.90
2022-09-02T08:30:34.862Z,18.00
2022-09-02T08:33:01.525Z,18.20
2022-09-02T08:35:28.234Z,18.30
2022-09-02T08:37:54.954Z,18.40
2022-09-02T08:40:24.752Z,18.60
2022-09-02T08:42:55.990Z,18.70
2022-09-02T08:45:37.498Z,18.80
2022-09-02T08:48:37.803Z,18.90
2022-09-02T08:51:10.019Z,19.10
2022-09-02T08:53:46.587Z,19.10
2022-09-02T08:56:17.188Z,19.20
2022-09-02T08:58:48.562Z,19.30
2022-09-02T09:01:29.092Z,19.40
2022-09-02T09:04:24.819Z,19.50
2022-09-02T09:10:03.220Z,19.70
2022-09-02T09:12:54.645Z,19.80
2022-09-02T09:15:52.298Z,19.80
2022-09-02T09:18:34.876Z,19.90
2022-09-02T09:21:01.988Z,20.10
2022-09-02T09:23:34.322Z,20.10
2022-09-02T09:26:13.638Z,20.20
2022-09-02T09:28:45.375Z,20.30
2022-09-02T09:31:18.996Z,20.30
2022-09-02T09:33:59.789Z,20.30
2022-09-02T09:36:42.176Z,20.50
2022-09-02T09:39:29.981Z,20.60
2022-09-02T09:41:59.629Z,20.70
2022-09-02T09:44:44.941Z,20.70
2022-09-02T09:47:19.486Z,20.90
2022-09-02T09:49:48.303Z,20.90
2022-09-02T09:52:30.311Z,20.90
2022-09-02T09:55:24.688Z,21.10
2022-09-02T09:57:53.706Z,21.20
2022-09-02T10:00:32.310Z,21.20
2022-09-02T10:03:03.454Z,21.20
2022-09-02T10:05:36.582Z,21.20
2022-09-02T10:08:20.456Z,21.30
2022-09-02T10:11:01.521Z,21.40
2022-09-02T10:13:34.155Z,21.40
2022-09-02T10:16:29.067Z,21.50
2022-09-02T10:19:04.733Z,21.60
2022-09-02T10:21:49.531Z,21.70
2022-09-02T10:24:41.066Z,21.90
2022-09-02T10:27:11.632Z,22.00
2022-09-02T10:30:05.695Z,22.20
2022-09-02T10:32:32.339Z,22.10
2022-09-02T10:35:23.362Z,22.00
2022-09-02T10:38:14.729Z,22.10
2022-09-02T10:41:23.274Z,22.20
2022-09-02T10:44:03.803Z,22.30
2022-09-02T10:46:43.911Z,22.50
2022-09-02T10:49:30.228Z,22.60
2022-09-02T10:52:15.762Z,22.50
2022-09-02T10:55:13.947Z,22.60
2022-09-02T10:57:55.527Z,22.90
2022-09-02T11:00:23.494Z,22.90
2022-09-02T11:03:10.411Z,23.20
2022-09-02T11:05:54.519Z,23.20
2022-09-02T11:08:40.951Z,23.10
2022-09-02T11:11:22.407Z,23.30
2022-09-02T11:14:20.975Z,23.50
2022-09-02T11:16:55.286Z,23.80
2022-09-02T11:19:38.558Z,24.00
2022-09-02T11:22:14.306Z,24.00
2022-09-02T11:25:00.569Z,24.10
2022-09-02T11:27:52.753Z,24.30
2022-09-02T11:30:25.253Z,24.20
2022-09-02T11:32:56.337Z,24.40
2022-09-02T11:35:28.918Z,23.90
2022-09-02T11:38:05.277Z,23.50
2022-09-02T11:43:57.675Z,24.70
2022-09-02T11:46:46.267Z,25.20
2022-09-02T11:49:32.668Z,25.20
2022-09-02T11:52:08.157Z,24.30
2022-09-02T11:54:40.957Z,24.80
2022-09-02T11:57:13.641Z,25.40
2022-09-02T11:59:52.544Z,25.50
2022-09-02T12:02:36.049Z,25.70
2022-09-02T12:05:30.926Z,25.40
2022-09-02T12:08:04.205Z,26.00
2022-09-02T12:10:47.585Z,26.10
2022-09-02T12:13:33.873Z,25.70
2022-09-02T12:16:12.997Z,25.00
2022-09-02T12:18:44.189Z,24.60
2022-09-02T12:21:18.333Z,25.40
2022-09-02T12:23:53.564Z,26.00
2022-09-02T12:26:29.277Z,26.80
2022-09-02T12:29:22.580Z,27.10
2022-09-02T12:31:51.244Z,26.90
2022-09-02T12:34:20.656Z,26.20
2022-09-02T12:37:00.628Z,25.40
2022-09-02T12:39:27.356Z,25.70
2022-09-02T12:42:07.849Z,26.60
2022-09-02T12:44:43.600Z,26.90
2022-09-02T12:47:24.171Z,27.70
2022-09-02T12:50:02.905Z,28.20
2022-09-02T12:52:50.156Z,28.40
2022-09-02T12:55:24.839Z,27.20
2022-09-02T12:57:55.070Z,26.80
2022-09-02T13:00:40.298Z,26.90
2022-09-02T13:03:46.276Z,26.00
2022-09-02T13:06:44.668Z,25.40
2022-09-02T13:09:29.838Z,26.10
2022-09-02T13:12:21.190Z,26.90
2022-09-02T13:15:01.900Z,27.80
2022-09-02T13:17:53.388Z,28.60
2022-09-02T13:20:53.709Z,28.60
2022-09-02T13:23:50.134Z,28.20
2022-09-02T13:27:06.823Z,28.80
2022-09-02T13:30:03.071Z,29.50
2022-09-02T13:32:31.173Z,29.30
2022-09-02T13:35:05.336Z,29.30
2022-09-02T13:37:43.518Z,29.00
2022-09-02T13:40:24.829Z,28.80
2022-09-02T13:42:54.469Z,29.20
2022-09-02T13:45:23.617Z,29.10
2022-09-02T13:47:53.174Z,29.10
2022-09-02T13:50:23.058Z,29.30
2022-09-02T13:55:49.055Z,28.30
2022-09-02T13:58:32.144Z,27.00
2022-09-02T14:01:18.203Z,26.60
2022-09-02T14:03:57.442Z,27.50
2022-09-02T14:06:29.270Z,28.00
2022-09-02T14:08:59.823Z,28.10
2022-09-02T14:11:28.487Z,28.00
2022-09-02T14:13:56.205Z,28.10
2022-09-02T14:16:36.043Z,28.60
2022-09-02T14:19:14.215Z,28.20
2022-09-02T14:21:58.397Z,28.00
2022-09-02T14:24:27.870Z,27.50
2022-09-02T14:26:59.949Z,27.00
2022-09-02T14:29:29.881Z,26.80
2022-09-02T14:32:14.383Z,26.50
2022-09-02T14:34:46.994Z,26.40
2022-09-02T14:37:24.137Z,26.30
2022-09-02T14:40:03.321Z,26.10
2022-09-02T14:42:30.422Z,26.20
2022-09-02T14:44:59.330Z,26.10
2022-09-02T14:47:28.084Z,26.10
2022-09-02T14:49:56.005Z,26.00
2022-09-02T14:52:27.727Z,26.20
2022-09-02T14:54:58.995Z,26.20
2022-09-02T14:57:33.072Z,26.20
2022-09-02T15:00:11.806Z,25.80
2022-09-02T15:02:42.037Z,25.60
2022-09-02T15:05:13.481Z,25.30
2022-09-02T15:07:40.473Z,25.20
2022-09-02T15:10:09.619Z,25.50
2022-09-02T15:12:52.193Z,25.50
2022-09-02T15:15:18.970Z,25.50
2022-09-02T15:17:45.582Z,25.70
2022-09-02T15:20:12.394Z,25.70
2022-09-02T15:22:39.165Z,25.90
2022-09-02T15:25:07.973Z,25.80
2022-09-02T15:27:35.445Z,25.70
2022-09-02T15:30:02.070Z,25.50
2022-09-02T15:32:28.717Z,25.40
2022-09-02T15:34:55.345Z,25.30
2022-09-02T15:37:22.095Z,25.30
2022-09-02T15:39:50.349Z,25.10
2022-09-02T15:42:18.246Z,25.10
2022-09-02T15:44:46.179Z,25.00
2022-09-02T15:47:12.853Z,24.80
2022-09-02T15:49:39.456Z,24.90
2022-09-02T15:52:06.178Z,24.90
2022-09-02T15:54:33.516Z,24.70
2022-09-02T15:57:00.137Z,24.50
2022-09-02T15:59:27.994Z,24.50
2022-09-02T16:01:58.718Z,24.50
2022-09-02T16:04:27.260Z,24.50
2022-09-02T16:06:54.100Z,24.40
2022-09-02T16:09:21.264Z,24.30
2022-09-02T16:11:52.627Z,24.30
2022-09-02T16:14:21.309Z,24.30
2022-09-02T16:16:49.757Z,24.30
2022-09-02T16:19:23.106Z,24.30
2022-09-02T16:21:51.094Z,24.30
2022-09-02T16:24:19.894Z,24.50
2022-09-02T16:26:47.213Z,24.60
2022-09-02T16:29:14.939Z,24.70
2022-09-02T16:31:43.685Z,24.60
2022-09-02T16:34:13.343Z,24.60
2022-09-02T16:36:42.651Z,24.60
2022-09-02T16:39:11.992Z,24.40
2022-09-02T16:41:44.506Z,24.20
2022-09-02T16:44:17.327Z,26.40
2022-09-02T16:46:45.253Z,27.10
2022-09-02T16:49:14.219Z,26.90
2022-09-02T16:51:40.960Z,26.30
2022-09-02T16:54:09.367Z,25.60
2022-09-02T16:56:44.528Z,24.80
2022-09-02T16:59:12.862Z,24.20
2022-09-02T17:01:40.786Z,23.90
2022-09-02T17:04:08.528Z,23.70
2022-09-02T17:06:41.348Z,23.50
2022-09-02T17:09:09.183Z,23.20
2022-09-02T17:11:39.602Z,23.00
2022-09-02T17:14:09.542Z,22.90
2022-09-02T17:16:38.919Z,22.70
2022-09-02T17:19:06.687Z,22.50
2022-09-02T17:21:39.697Z,22.50
2022-09-02T17:24:08.177Z,22.30
2022-09-02T17:26:39.318Z,22.20
2022-09-02T17:29:26.242Z,22.10
2022-09-02T17:31:58.210Z,22.10
2022-09-02T17:34:25.974Z,22.00
2022-09-02T17:36:53.294Z,21.90
2022-09-02T17:39:20.383Z,21.80
2022-09-02T17:41:59.436Z,21.60
2022-09-02T17:44:34.835Z,21.60
2022-09-02T17:47:06.997Z,21.50
2022-09-02T17:49:36.463Z,21.30
2022-09-02T17:52:05.341Z,21.20
2022-09-02T17:54:32.376Z,21.10
2022-09-02T17:57:08.837Z,20.90
2022-09-02T17:59:51.029Z,20.80
2022-09-02T18:02:35.874Z,20.60
2022-09-02T18:05:05.350Z,20.50
2022-09-02T18:07:50.863Z,20.40
2022-09-02T18:10:20.237Z,20.30
2022-09-02T18:12:47.080Z,20.30
2022-09-02T18:15:18.478Z,20.20
2022-09-02T18:17:52.093Z,20.10
2022-09-02T18:20:48.057Z,20.10
2022-09-02T18:23:27.309Z,20.00
2022-09-02T18:26:10.086Z,19.90
2022-09-02T18:29:16.058Z,19.90
2022-09-02T18:32:23.004Z,19.80
2022-09-02T18:35:04.153Z,19.80
2022-09-02T18:37:49.486Z,19.80
2022-09-02T18:40:28.415Z,19.70
2022-09-02T18:43:12.944Z,19.70
2022-09-02T18:46:07.004Z,19.60
2022-09-02T18:48:38.681Z,19.60
2022-09-02T18:51:25.045Z,19.60
2022-09-02T18:53:56.956Z,19.50
2022-09-02T18:56:31.123Z,19.50
2022-09-02T18:59:07.908Z,19.50
2022-09-02T19:01:48.687Z,19.50
2022-09-02T19:04:15.506Z,19.50
2022-09-02T19:06:42.188Z,19.60
2022-09-02T19:09:13.782Z,19.60
2022-09-02T19:11:41.171Z,19.60
2022-09-02T19:14:28.534Z,19.60
2022-09-02T19:16:58.040Z,19.60
2022-09-02T19:19:27.425Z,19.60
2022-09-02T19:22:07.082Z,19.60
2022-09-02T19:24:45.337Z,19.60
2022-09-02T19:27:20.197Z,19.60
2022-09-02T19:29:51.311Z,19.70
2022-09-02T19:32:22.940Z,19.70
2022-09-02T19:34:49.680Z,19.60
2022-09-02T19:37:16.917Z,19.60
2022-09-02T19:39:43.705Z,19.60
2022-09-02T19:42:10.848Z,19.60
2022-09-02T19:44:38.896Z,19.60
2022-09-02T19:47:56.052Z,19.50
2022-09-02T19:49:52.538Z,19.50
2022-09-02T19:52:22.594Z,19.50
2022-09-02T19:54:49.358Z,19.40
2022-09-02T19:57:16.204Z,19.40
2022-09-02T19:59:42.882Z,19.40
2022-09-02T20:02:09.620Z,19.30
2022-09-02T20:04:36.281Z,19.20
2022-09-02T20:07:03.044Z,19.20
2022-09-02T20:09:29.959Z,19.20
2022-09-02T20:11:57.250Z,19.20
2022-09-02T20:14:24.736Z,19.20
2022-09-02T20:16:58.423Z,19.20
2022-09-02T20:19:26.519Z,19.10
2022-09-02T20:21:53.825Z,19.10
2022-09-02T20:24:31.452Z,19.10
2022-09-02T20:27:30.714Z,19.00
2022-09-02T20:30:08.451Z,19.00
2022-09-02T20:33:08.793Z,18.90
2022-09-02T20:35:50.656Z,18.80
2022-09-02T20:38:42.474Z,18.80
2022-09-02T20:41:40.942Z,18.70
2022-09-02T20:44:16.686Z,18.60
2022-09-02T20:47:06.598Z,18.50
2022-09-02T20:50:06.207Z,18.40
2022-09-02T20:52:52.623Z,18.40
2022-09-02T20:55:29.405Z,18.20
2022-09-02T20:58:17.509Z,18.10
2022-09-02T21:01:10.742Z,18.00
2022-09-02T21:03:52.727Z,17.90
2022-09-02T21:06:22.125Z,17.90
2022-09-02T21:09:00.665Z,17.80
2022-09-02T21:11:33.965Z,17.70
2022-09-02T21:14:22.508Z,17.60
2022-09-02T21:16:59.588Z,17.60
2022-09-02T21:19:39.413Z,17.60
2022-09-02T21:22:19.205Z,17.50
2022-09-02T21:25:10.395Z,17.50
2022-09-02T21:27:55.566Z,17.40
2022-09-02T21:30:25.230Z,17.30
2022-09-02T21:32:59.634Z,17.20
2022-09-02T21:35:37.309Z,17.10
2022-09-02T21:38:10.158Z,17.10
2022-09-02T21:40:39.839Z,17.00
2022-09-02T21:43:29.817Z,16.90
2022-09-02T21:46:26.364Z,16.90
2022-09-02T21:49:05.738Z,16.80
2022-09-02T21:51:54.864Z,16.80
2022-09-02T21:54:42.272Z,16.70
2022-09-02T21:57:32.366Z,16.70
2022-09-02T22:00:07.506Z,16.60
2022-09-02T22:03:09.061Z,16.60
2022-09-02T22:05:38.917Z,16.50
2022-09-02T22:08:34.908Z,16.50
2022-09-02T22:11:07.282Z,16.40
2022-09-02T22:13:34.110Z,16.30
2022-09-02T22:16:20.666Z,16.20
2022-09-02T22:18:55.242Z,16.10
2022-09-02T22:21:31.564Z,16.10
2022-09-02T22:24:01.064Z,16.00
2022-09-02T22:26:38.102Z,16.00
2022-09-02T22:29:28.941Z,15.90
2022-09-02T22:32:00.214Z,15.90
2022-09-02T22:34:30.013Z,15.80
2022-09-02T22:37:07.658Z,15.80
2022-09-02T22:39:43.579Z,15.80
2022-09-02T22:42:20.006Z,15.70
2022-09-02T22:45:22.243Z,15.70
2022-09-02T22:48:14.023Z,15.70
2022-09-02T22:51:05.084Z,15.60
2022-09-02T22:53:31.788Z,15.50
2022-09-02T22:56:04.066Z,15.40
2022-09-02T22:59:11.437Z,15.30
2022-09-02T23:01:44.875Z,15.20
2022-09-02T23:04:29.682Z,15.10
2022-09-02T23:06:58.844Z,15.10
2022-09-02T23:09:25.813Z,15.00
2022-09-02T23:12:22.923Z,15.00
2022-09-02T23:15:04.141Z,14.90
2022-09-02T23:17:47.014Z,14.90
2022-09-02T23:20:25.330Z,14.90
2022-09-02T23:23:16.081Z,14.90
2022-09-02T23:26:09.331Z,14.90
2022-09-02T23:28:43.031Z,14.80
2022-09-02T23:31:31.803Z,14.70
2022-09-02T23:34:06.811Z,14.70
2022-09-02T23:36:58.385Z,14.70
2022-09-02T23:39:44.049Z,14.70
2022-09-02T23:42:12.086Z,14.60
2022-09-02T23:44:38.858Z,14.60
2022-09-02T23:47:29.841Z,14.60
2022-09-02T23:50:31.069Z,14.50
2022-09-02T23:53:15.922Z,14.50
2022-09-02T23:55:58.209Z,14.40
2022-09-02T23:58:48.646Z,14.50
